createdAt,value
2017-08-26T00:01:40.867Z,95539.62
2017-08-26T00:04:08.390Z,95527.84
2017-08-26T00:06:35.972Z,95537.14
2017-08-26T00:09:03.506Z,95526.39
2017-08-26T00:11:31.310Z,95534.87
2017-08-26T00:13:58.901Z,95527.67
2017-08-26T00:16:26.431Z,95525.41
2017-08-26T00:18:53.969Z,95534.53
2017-08-26T00:21:21.589Z,95529.60
2017-08-26T00:23:49.171Z,95532.82
2017-08-26T00:26:16.728Z,95520.53
2017-08-26T00:28:44.277Z,95527.52
2017-08-26T00:31:11.947Z,95532.44
2017-08-26T00:33:39.472Z,95525.63
2017-08-26T00:36:06.983Z,95523.19
2017-08-26T00:38:34.557Z,95522.59
2017-08-26T00:41:02.065Z,95525.84
2017-08-26T00:43:29.578Z,95530.78
2017-08-26T00:45:57.170Z,95526.79
2017-08-26T00:48:24.726Z,95527.56
2017-08-26T00:50:52.369Z,95528.16
2017-08-26T00:53:19.925Z,95533.65
2017-08-26T00:55:47.471Z,95535.75
2017-08-26T00:58:15.005Z,95531.22
2017-08-26T01:00:42.535Z,95537.30
2017-08-26T01:03:10.089Z,95542.57
2017-08-26T01:05:37.645Z,95538.97
2017-08-26T01:08:05.210Z,95540.30
2017-08-26T01:10:32.784Z,95531.04
2017-08-26T01:13:00.335Z,95535.98
2017-08-26T01:15:27.843Z,95536.91
2017-08-26T01:17:55.420Z,95531.61
2017-08-26T01:20:23.001Z,95528.01
2017-08-26T01:22:50.713Z,95534.27
2017-08-26T01:25:18.252Z,95535.80
2017-08-26T01:27:45.870Z,95531.64
2017-08-26T01:30:13.487Z,95522.53
2017-08-26T01:32:41.025Z,95516.09
2017-08-26T01:35:08.550Z,95526.73
2017-08-26T01:37:36.107Z,95527.49
2017-08-26T01:40:03.625Z,95523.89
2017-08-26T01:42:31.125Z,95524.28
2017-08-26T01:44:58.684Z,95526.17
2017-08-26T01:47:26.246Z,95522.02
2017-08-26T01:49:53.848Z,95521.25
2017-08-26T01:52:21.402Z,95519.92
2017-08-26T01:54:49.003Z,95524.50
2017-08-26T01:57:16.571Z,95528.87
2017-08-26T01:59:44.181Z,95527.54
2017-08-26T02:02:11.698Z,95525.45
2017-08-26T02:04:39.214Z,95525.66
2017-08-26T02:07:06.797Z,95529.05
2017-08-26T02:09:34.309Z,95529.82
2017-08-26T02:12:01.805Z,95527.72
2017-08-26T02:14:29.345Z,95525.84
2017-08-26T02:16:56.888Z,95522.23
2017-08-26T02:19:24.441Z,95530.03
2017-08-26T02:21:52.062Z,95524.34
2017-08-26T02:24:19.617Z,95531.36
2017-08-26T02:26:47.186Z,95529.09
2017-08-26T02:29:14.701Z,95532.52
2017-08-26T02:31:42.358Z,95532.13
2017-08-26T02:34:09.862Z,95538.77
2017-08-26T02:36:37.453Z,95531.78
2017-08-26T02:39:04.977Z,95532.52
2017-08-26T02:41:32.606Z,95536.88
2017-08-26T02:44:00.197Z,95535.17
2017-08-26T02:46:27.744Z,95526.45
2017-08-26T02:48:55.302Z,95538.98
2017-08-26T02:51:22.901Z,95534.41
2017-08-26T02:53:50.420Z,95528.93
2017-08-26T02:56:17.990Z,95538.04
2017-08-26T02:58:45.619Z,95543.53
2017-08-26T03:01:13.136Z,95543.14
2017-08-26T03:03:40.731Z,95537.27
2017-08-26T03:06:08.289Z,95541.08
2017-08-26T03:08:35.873Z,95540.70
2017-08-26T03:11:03.478Z,95532.55
2017-08-26T03:13:31.028Z,95541.84
2017-08-26T03:15:58.549Z,95541.26
2017-08-26T03:18:26.095Z,95530.85
2017-08-26T03:20:53.841Z,95549.81
2017-08-26T03:23:21.413Z,95548.28
2017-08-26T03:25:49.023Z,95544.13
2017-08-26T03:28:16.531Z,95553.23
2017-08-26T03:30:44.119Z,95554.18
2017-08-26T03:33:11.685Z,95554.73
2017-08-26T03:35:39.197Z,95556.45
2017-08-26T03:38:06.741Z,95550.41
2017-08-26T03:40:34.257Z,95561.41
2017-08-26T03:43:01.817Z,95565.00
2017-08-26T03:45:29.344Z,95561.78
2017-08-26T03:47:56.845Z,95568.42
2017-08-26T03:50:24.417Z,95568.04
2017-08-26T03:52:52.056Z,95571.45
2017-08-26T03:55:19.641Z,95574.67
2017-08-26T03:57:47.191Z,95568.42
2017-08-26T04:00:14.750Z,95572.41
2017-08-26T04:02:42.379Z,95573.17
2017-08-26T04:05:09.917Z,95573.17
2017-08-26T04:07:37.455Z,95581.13
2017-08-26T04:10:05.001Z,95568.80
2017-08-26T04:12:32.525Z,95574.64
2017-08-26T04:15:00.073Z,95579.36
2017-08-26T04:17:27.613Z,95571.88
2017-08-26T04:19:55.230Z,95576.37
2017-08-26T04:22:22.823Z,95558.42
2017-08-26T04:24:50.391Z,95576.98
2017-08-26T04:27:17.916Z,95579.25
2017-08-26T04:29:45.462Z,95580.53
2017-08-26T04:32:13.018Z,95575.04
2017-08-26T04:34:40.524Z,95581.63
2017-08-26T04:37:08.084Z,95579.36
2017-08-26T04:39:35.634Z,95580.14
2017-08-26T04:42:03.248Z,95579.55
2017-08-26T04:44:30.807Z,95580.43
2017-08-26T04:46:58.612Z,95576.56
2017-08-26T04:49:26.114Z,95567.13
2017-08-26T04:51:53.637Z,95571.50
2017-08-26T04:54:21.201Z,95566.53
2017-08-26T04:56:48.728Z,95580.03
2017-08-26T04:59:16.421Z,95567.35
2017-08-26T05:01:44.024Z,95563.77
2017-08-26T05:04:11.533Z,95571.34
2017-08-26T05:06:39.119Z,95579.87
2017-08-26T05:09:06.628Z,95582.16
2017-08-26T05:11:34.188Z,95585.19
2017-08-26T05:14:01.709Z,95586.73
2017-08-26T05:16:29.207Z,95587.28
2017-08-26T05:18:56.808Z,95585.01
2017-08-26T05:21:24.341Z,95575.11
2017-08-26T05:23:51.934Z,95583.25
2017-08-26T05:26:19.601Z,95588.36
2017-08-26T05:28:47.111Z,95584.59
2017-08-26T05:31:14.684Z,95596.33
2017-08-26T05:33:42.201Z,95595.93
2017-08-26T05:36:09.709Z,95592.50
2017-08-26T05:38:37.253Z,95591.75
2017-08-26T05:41:04.772Z,95593.08
2017-08-26T05:43:32.278Z,95591.16
2017-08-26T05:45:59.853Z,95595.34
2017-08-26T05:48:27.356Z,95588.10
2017-08-26T05:50:54.874Z,95591.13
2017-08-26T05:53:22.471Z,95592.80
2017-08-26T05:55:49.973Z,95584.26
2017-08-26T05:58:17.496Z,95585.20
2017-08-26T06:00:45.091Z,95591.80
2017-08-26T06:03:12.602Z,95586.30
2017-08-26T06:05:40.149Z,95591.95
2017-08-26T06:08:07.656Z,95584.76
2017-08-26T06:13:09.030Z,95597.97
2017-08-26T06:15:36.532Z,95597.58
2017-08-26T06:18:04.098Z,95587.89
2017-08-26T06:20:31.628Z,95595.64
2017-08-26T06:22:59.217Z,95599.61
2017-08-26T06:25:26.741Z,95592.37
2017-08-26T06:27:54.287Z,95595.02
2017-08-26T06:30:21.832Z,95601.05
2017-08-26T06:32:49.375Z,95597.81
2017-08-26T06:35:16.960Z,95593.44
2017-08-26T06:37:44.470Z,95596.81
2017-08-26T06:40:12.008Z,95593.55
2017-08-26T06:42:39.580Z,95602.84
2017-08-26T06:45:07.113Z,95597.30
2017-08-26T06:47:34.636Z,95598.65
2017-08-26T06:50:02.283Z,95595.20
2017-08-26T06:52:29.869Z,95599.18
2017-08-26T06:54:57.449Z,95595.34
2017-08-26T06:57:25.020Z,95596.29
2017-08-26T06:59:52.549Z,95589.96
2017-08-26T07:02:20.123Z,95586.17
2017-08-26T07:04:47.681Z,95580.31
2017-08-26T07:07:15.286Z,95600.75
2017-08-26T07:09:42.849Z,95592.38
2017-08-26T07:12:10.429Z,95591.25
2017-08-26T07:14:37.982Z,95581.16
2017-08-26T07:17:05.537Z,95587.76
2017-08-26T07:19:33.066Z,95587.18
2017-08-26T07:22:00.610Z,95586.57
2017-08-26T07:24:28.146Z,95585.23
2017-08-26T07:26:55.752Z,95586.73
2017-08-26T07:29:23.263Z,95582.54
2017-08-26T07:31:50.893Z,95576.82
2017-08-26T07:34:18.471Z,95575.27
2017-08-26T07:36:46.032Z,95568.23
2017-08-26T07:39:13.645Z,95572.19
2017-08-26T07:41:41.153Z,95568.53
2017-08-26T07:44:08.716Z,95567.19
2017-08-26T07:46:36.248Z,95575.13
2017-08-26T07:49:03.798Z,95570.34
2017-08-26T07:51:31.333Z,95575.20
2017-08-26T07:53:58.839Z,95570.58
2017-08-26T07:56:26.375Z,95569.23
2017-08-26T07:58:53.921Z,95558.52
2017-08-26T08:01:21.462Z,95552.62
2017-08-26T08:03:49.065Z,95554.09
2017-08-26T08:06:16.584Z,95550.64
2017-08-26T08:08:44.225Z,95539.34
2017-08-26T08:11:11.730Z,95540.86
2017-08-26T08:13:39.305Z,95534.23
2017-08-26T08:16:06.818Z,95537.20
2017-08-26T08:18:34.320Z,95533.35
2017-08-26T08:21:01.872Z,95541.29
2017-08-26T08:23:29.382Z,95523.98
2017-08-26T08:25:56.934Z,95533.61
2017-08-26T08:28:24.489Z,95522.44
2017-08-26T08:30:52.110Z,95521.06
2017-08-26T08:33:19.662Z,95521.63
2017-08-26T08:35:47.173Z,95524.24
2017-08-26T08:38:14.723Z,95513.16
2017-08-26T08:40:42.273Z,95520.54
2017-08-26T08:43:09.831Z,95515.19
2017-08-26T08:45:37.361Z,95510.95
2017-08-26T08:48:04.865Z,95512.10
2017-08-26T08:50:32.465Z,95509.03
2017-08-26T08:52:59.971Z,95509.36
2017-08-26T08:55:27.521Z,95501.58
2017-08-26T08:57:55.049Z,95504.61
2017-08-26T09:00:22.603Z,95506.09
2017-08-26T09:02:50.191Z,95492.72
2017-08-26T09:05:17.697Z,95499.84
2017-08-26T09:07:45.226Z,95490.75
2017-08-26T09:10:12.777Z,95492.03
2017-08-26T09:12:40.353Z,95492.30
2017-08-26T09:15:07.867Z,95484.88
2017-08-26T09:17:35.398Z,95484.14
2017-08-26T09:20:03.049Z,95486.55
2017-08-26T09:22:30.597Z,95475.88
2017-08-26T09:24:58.149Z,95470.56
2017-08-26T09:27:25.743Z,95463.55
2017-08-26T09:29:53.293Z,95463.67
2017-08-26T09:32:20.834Z,95458.16
2017-08-26T09:34:48.449Z,95461.30
2017-08-26T09:37:16.056Z,95458.09
2017-08-26T09:39:43.571Z,95453.88
2017-08-26T09:42:11.097Z,95446.28
2017-08-26T09:44:38.680Z,95450.83
2017-08-26T09:47:06.246Z,95438.97
2017-08-26T09:49:33.756Z,95442.38
2017-08-26T09:52:01.254Z,95439.69
2017-08-26T09:54:28.814Z,95438.92
2017-08-26T09:56:56.356Z,95436.80
2017-08-26T09:59:23.939Z,95423.66
2017-08-26T10:01:51.597Z,95428.94
2017-08-26T10:04:19.242Z,95424.38
2017-08-26T10:06:46.805Z,95421.32
2017-08-26T10:09:14.369Z,95418.48
2017-08-26T10:11:41.940Z,95422.06
2017-08-26T10:14:09.509Z,95414.06
2017-08-26T10:16:37.025Z,95406.22
2017-08-26T10:19:04.533Z,95412.48
2017-08-26T10:21:32.079Z,95406.63
2017-08-26T10:23:59.591Z,95403.91
2017-08-26T10:26:27.150Z,95399.83
2017-08-26T10:28:54.730Z,95405.52
2017-08-26T10:31:22.342Z,95401.35
2017-08-26T10:33:49.936Z,95404.51
2017-08-26T10:36:17.495Z,95398.06
2017-08-26T10:38:45.073Z,95394.76
2017-08-26T10:41:12.628Z,95388.69
2017-08-26T10:43:40.190Z,95393.62
2017-08-26T10:46:07.732Z,95387.33
2017-08-26T10:48:35.294Z,95385.59
2017-08-26T10:51:02.822Z,95383.63
2017-08-26T10:53:30.383Z,95377.12
2017-08-26T10:55:57.885Z,95377.09
2017-08-26T10:58:25.569Z,95370.39
2017-08-26T11:00:53.210Z,95370.23
2017-08-26T11:03:20.786Z,95371.31
2017-08-26T11:05:48.372Z,95362.52
2017-08-26T11:08:15.946Z,95350.95
2017-08-26T11:10:43.474Z,95349.53
2017-08-26T11:13:10.980Z,95348.20
2017-08-26T11:15:38.553Z,95342.42
2017-08-26T11:18:06.125Z,95344.33
2017-08-26T11:20:33.685Z,95343.37
2017-08-26T11:23:01.207Z,95343.67
2017-08-26T11:25:28.758Z,95334.88
2017-08-26T11:27:56.332Z,95331.66
2017-08-26T11:30:23.930Z,95330.30
2017-08-26T11:32:51.501Z,95317.71
2017-08-26T11:35:19.109Z,95321.23
2017-08-26T11:37:46.686Z,95309.26
2017-08-26T11:40:14.267Z,95318.80
2017-08-26T11:42:41.809Z,95317.81
2017-08-26T11:45:09.371Z,95315.88
2017-08-26T11:47:36.916Z,95313.72
2017-08-26T11:50:04.580Z,95313.94
2017-08-26T11:52:32.099Z,95305.20
2017-08-26T11:54:59.665Z,95303.55
2017-08-26T11:57:27.189Z,95298.30
2017-08-26T11:59:54.719Z,95296.91
2017-08-26T12:02:22.374Z,95295.29
2017-08-26T12:04:49.913Z,95300.98
2017-08-26T12:07:18.137Z,95300.38
2017-08-26T12:09:45.739Z,95292.05
2017-08-26T12:12:13.287Z,95298.84
2017-08-26T12:14:40.861Z,95295.41
2017-08-26T12:17:08.412Z,95292.71
2017-08-26T12:19:35.988Z,95291.50
2017-08-26T12:22:03.559Z,95290.17
2017-08-26T12:24:31.146Z,95284.60
2017-08-26T12:26:58.713Z,95288.22
2017-08-26T12:29:26.239Z,95282.77
2017-08-26T12:31:54.273Z,95279.64
2017-08-26T12:34:22.057Z,95278.62
2017-08-26T12:36:49.641Z,95276.47
2017-08-26T12:39:17.184Z,95273.41
2017-08-26T12:41:44.830Z,95273.19
2017-08-26T12:44:12.454Z,95270.52
2017-08-26T12:46:40.023Z,95278.11
2017-08-26T12:49:07.540Z,95276.05
2017-08-26T12:51:35.060Z,95267.02
2017-08-26T12:54:02.622Z,95262.41
2017-08-26T12:56:30.131Z,95265.27
2017-08-26T12:58:57.648Z,95263.86
2017-08-26T13:01:25.557Z,95254.43
2017-08-26T13:03:53.065Z,95262.66
2017-08-26T13:06:20.624Z,95255.56
2017-08-26T13:08:48.173Z,95250.02
2017-08-26T13:11:15.684Z,95249.61
2017-08-26T13:13:43.270Z,95240.95
2017-08-26T13:16:10.854Z,95234.58
2017-08-26T13:18:38.370Z,95232.22
2017-08-26T13:21:05.878Z,95233.33
2017-08-26T13:23:33.541Z,95235.16
2017-08-26T13:26:01.722Z,95230.42
2017-08-26T13:28:29.238Z,95228.45
2017-08-26T13:30:56.742Z,95225.40
2017-08-26T13:33:24.313Z,95221.77
2017-08-26T13:35:51.869Z,95216.55
2017-08-26T13:38:19.643Z,95210.45
2017-08-26T13:40:47.177Z,95212.34
2017-08-26T13:43:15.033Z,95203.95
2017-08-26T13:45:42.914Z,95205.83
2017-08-26T13:48:10.428Z,95204.50
2017-08-26T13:50:37.974Z,95206.75
2017-08-26T13:53:05.561Z,95210.18
2017-08-26T13:55:33.130Z,95207.44
2017-08-26T13:58:11.423Z,95204.23
2017-08-26T14:00:40.779Z,95200.41
2017-08-26T14:03:08.346Z,95206.29
2017-08-26T14:05:35.853Z,95205.65
2017-08-26T14:08:03.445Z,95196.41
2017-08-26T14:10:30.980Z,95202.94
2017-08-26T14:12:58.493Z,95200.42
2017-08-26T14:15:26.127Z,95197.55
2017-08-26T14:17:53.817Z,95198.89
